createdAt,value
2022-11-19T00:00:15.275Z,25.52
2022-11-19T00:02:46.779Z,28.75
2022-11-19T00:05:15.583Z,27.77
2022-11-19T00:07:43.773Z,41.40
2022-11-19T00:10:13.511Z,28.65
2022-11-19T00:12:56.364Z,30.60
2022-11-19T00:15:25.050Z,26.67
2022-11-19T00:17:53.649Z,26.25
2022-11-19T00:20:22.284Z,25.70
2022-11-19T00:22:53.658Z,24.83
2022-11-19T00:25:25.105Z,26.63
2022-11-19T00:27:53.745Z,25.55
2022-11-19T00:30:46.830Z,25.08
2022-11-19T00:33:14.587Z,29.90
2022-11-19T00:35:43.115Z,31.08
2022-11-19T00:38:11.530Z,27.80
2022-11-19T00:40:44.466Z,33.67
2022-11-19T00:43:36.168Z,31.25
2022-11-19T00:46:05.721Z,34.35
2022-11-19T00:48:37.161Z,28.85
2022-11-19T00:51:05.813Z,26.40
2022-11-19T00:53:34.589Z,27.27
2022-11-19T00:56:05.943Z,30.02
2022-11-19T00:58:38.383Z,34.20
2022-11-19T01:01:07.940Z,28.08
2022-11-19T01:03:46.491Z,30.00
2022-11-19T01:06:19.605Z,26.35
2022-11-19T01:08:48.633Z,25.02
2022-11-19T01:11:21.104Z,30.88
2022-11-19T01:13:50.045Z,27.33
2022-11-19T01:16:21.122Z,21.92
2022-11-19T01:18:50.827Z,35.28
2022-11-19T01:21:23.799Z,27.65
2022-11-19T01:23:52.875Z,24.95
2022-11-19T01:26:23.710Z,24.20
2022-11-19T01:28:52.241Z,26.58
2022-11-19T01:31:23.427Z,27.30
2022-11-19T01:33:52.020Z,25.02
2022-11-19T01:36:22.160Z,27.92
2022-11-19T01:38:51.909Z,28.40
2022-11-19T01:41:24.385Z,25.92
2022-11-19T01:43:54.821Z,26.63
2022-11-19T01:46:25.638Z,24.80
2022-11-19T01:49:03.674Z,27.17
2022-11-19T01:51:36.929Z,25.73
2022-11-19T01:54:12.819Z,29.48
2022-11-19T01:56:44.579Z,28.55
2022-11-19T02:02:22.838Z,27.00
2022-11-19T02:04:57.460Z,33.25
2022-11-19T02:07:29.895Z,28.25
2022-11-19T02:10:04.568Z,27.27
2022-11-19T02:12:49.515Z,21.42
2022-11-19T02:15:28.450Z,25.23
2022-11-19T02:18:24.984Z,19.23
2022-11-19T02:21:08.579Z,24.85
2022-11-19T02:24:11.804Z,24.67
2022-11-19T02:27:31.130Z,23.92
2022-11-19T02:30:39.742Z,28.00
2022-11-19T02:34:02.908Z,27.00
2022-11-19T02:36:49.851Z,28.50
2022-11-19T02:39:27.931Z,20.85
2022-11-19T02:42:03.353Z,29.83
2022-11-19T02:44:55.162Z,25.73
2022-11-19T02:47:36.128Z,25.27
2022-11-19T02:50:22.768Z,25.38
2022-11-19T02:52:55.091Z,21.42
2022-11-19T02:55:26.122Z,32.30
2022-11-19T02:58:00.142Z,31.10
2022-11-19T03:00:57.942Z,24.08
2022-11-19T03:03:53.577Z,26.92
2022-11-19T03:06:39.931Z,24.45
2022-11-19T03:09:17.913Z,29.27
2022-11-19T03:11:53.948Z,27.10
2022-11-19T03:14:43.329Z,27.08
2022-11-19T03:17:18.381Z,28.30
2022-11-19T03:19:52.829Z,28.63
2022-11-19T03:22:26.525Z,26.45
2022-11-19T03:25:00.774Z,20.73
2022-11-19T03:27:38.883Z,20.33
2022-11-19T03:30:12.811Z,23.83
2022-11-19T03:32:46.966Z,18.85
2022-11-19T03:35:20.701Z,22.88
2022-11-19T03:37:52.453Z,23.40
2022-11-19T03:40:25.701Z,21.83
2022-11-19T03:42:56.490Z,23.55
2022-11-19T03:45:29.741Z,22.77
2022-11-19T03:47:59.462Z,22.67
2022-11-19T03:50:37.497Z,22.92
2022-11-19T03:53:39.237Z,21.63
2022-11-19T03:56:18.316Z,26.90
2022-11-19T03:58:50.693Z,23.98
2022-11-19T04:01:19.984Z,27.10
2022-11-19T04:04:20.993Z,25.30
2022-11-19T04:07:01.643Z,19.13
2022-11-19T04:09:36.947Z,20.17
2022-11-19T04:12:28.434Z,21.55
2022-11-19T04:15:36.903Z,18.83
2022-11-19T04:18:26.017Z,25.42
2022-11-19T04:21:32.975Z,21.33
2022-11-19T04:24:07.671Z,26.35
2022-11-19T04:26:39.683Z,23.30
2022-11-19T04:29:13.283Z,21.92
2022-11-19T04:31:41.756Z,24.55
2022-11-19T04:34:12.828Z,26.88
2022-11-19T04:36:43.002Z,28.02
2022-11-19T04:39:13.542Z,26.67
2022-11-19T04:41:42.958Z,25.05
2022-11-19T04:44:15.022Z,27.45
2022-11-19T04:46:57.946Z,30.77
2022-11-19T04:49:26.316Z,36.30
2022-11-19T04:51:55.290Z,32.05
2022-11-19T04:54:25.276Z,30.25
2022-11-19T04:56:54.642Z,33.10
2022-11-19T04:59:23.662Z,35.45
2022-11-19T05:01:56.227Z,37.17
2022-11-19T05:04:27.548Z,31.92
2022-11-19T05:06:56.117Z,32.53
2022-11-19T05:09:29.670Z,26.10
2022-11-19T05:11:58.441Z,31.33
2022-11-19T05:14:32.450Z,26.63
2022-11-19T05:17:01.055Z,28.33
2022-11-19T05:19:42.121Z,35.55
2022-11-19T05:22:13.433Z,27.88
2022-11-19T05:24:43.182Z,24.80
2022-11-19T05:27:11.737Z,23.10
2022-11-19T05:29:40.137Z,28.02
2022-11-19T05:32:09.157Z,26.70
2022-11-19T05:34:38.077Z,28.40
2022-11-19T05:37:06.416Z,23.77
2022-11-19T05:39:36.194Z,29.88
2022-11-19T05:42:06.443Z,33.38
2022-11-19T05:44:34.764Z,26.55
2022-11-19T05:47:03.887Z,25.63
2022-11-19T05:49:35.075Z,22.52
2022-11-19T05:52:03.681Z,34.22
2022-11-19T05:54:32.660Z,32.70
2022-11-19T05:57:05.753Z,30.02
2022-11-19T05:59:44.201Z,33.30
2022-11-19T06:02:25.513Z,28.38
2022-11-19T06:05:18.793Z,39.08
2022-11-19T06:07:54.008Z,35.65
2022-11-19T06:10:25.194Z,34.97
2022-11-19T06:13:21.374Z,31.67
2022-11-19T06:15:52.507Z,32.25
2022-11-19T06:18:30.086Z,33.05
2022-11-19T06:21:11.979Z,23.30
2022-11-19T06:23:51.813Z,37.95
2022-11-19T06:26:27.543Z,30.38
2022-11-19T06:29:21.554Z,28.48
2022-11-19T06:31:58.989Z,31.98
2022-11-19T06:34:30.770Z,30.88
2022-11-19T06:37:00.342Z,35.47
2022-11-19T06:39:28.841Z,38.58
2022-11-19T06:42:17.726Z,37.97
2022-11-19T06:44:50.299Z,41.30
2022-11-19T06:47:18.773Z,48.47
2022-11-19T06:49:55.709Z,52.85
2022-11-19T06:52:24.130Z,49.45
2022-11-19T06:54:55.660Z,49.35
2022-11-19T06:57:30.839Z,52.38
2022-11-19T07:00:00.874Z,55.25
2022-11-19T07:02:32.561Z,62.15
2022-11-19T07:05:00.962Z,55.67
2022-11-19T07:07:32.787Z,58.10
2022-11-19T07:10:17.721Z,55.55
2022-11-19T07:13:15.814Z,83.07
2022-11-19T07:15:48.407Z,71.25
2022-11-19T07:18:17.207Z,68.28
2022-11-19T07:20:47.390Z,71.60
2022-11-19T07:23:16.230Z,83.95
2022-11-19T07:25:44.671Z,84.93
2022-11-19T07:28:13.177Z,74.40
2022-11-19T07:30:45.957Z,69.97
2022-11-19T07:33:17.729Z,56.30
2022-11-19T07:35:46.262Z,65.22
2022-11-19T07:38:14.771Z,65.28
2022-11-19T07:40:43.102Z,66.32
2022-11-19T07:43:10.353Z,61.60
2022-11-19T07:45:39.138Z,53.33
2022-11-19T07:48:09.100Z,56.78
2022-11-19T07:50:37.397Z,54.92
2022-11-19T07:53:07.034Z,54.28
2022-11-19T07:55:35.306Z,55.33
2022-11-19T07:58:03.821Z,62.65
2022-11-19T08:00:32.406Z,60.85
2022-11-19T08:03:00.670Z,56.10
2022-11-19T08:05:30.595Z,68.28
2022-11-19T08:07:58.951Z,56.45
2022-11-19T08:10:31.611Z,57.65
2022-11-19T08:13:04.382Z,63.75
2022-11-19T08:15:33.841Z,64.20
2022-11-19T08:18:13.058Z,58.45
2022-11-19T08:20:43.730Z,63.75
2022-11-19T08:23:12.545Z,55.33
2022-11-19T08:28:36.043Z,60.00
2022-11-19T08:31:08.299Z,62.22
2022-11-19T08:33:37.190Z,52.25
2022-11-19T08:36:07.271Z,53.15
2022-11-19T08:38:38.576Z,52.42
2022-11-19T08:41:25.310Z,53.67
2022-11-19T08:43:53.761Z,57.92
2022-11-19T08:46:22.035Z,58.30
2022-11-19T08:48:53.423Z,55.97
2022-11-19T08:51:23.159Z,55.60
2022-11-19T08:53:55.947Z,56.80
2022-11-19T08:56:24.846Z,55.70
2022-11-19T08:58:58.469Z,55.00
2022-11-19T09:01:34.891Z,59.13
2022-11-19T09:04:03.249Z,56.33
2022-11-19T09:06:35.591Z,56.33
2022-11-19T09:09:04.768Z,57.45
2022-11-19T09:11:36.214Z,50.40
2022-11-19T09:14:06.749Z,53.90
2022-11-19T09:16:35.190Z,55.75
2022-11-19T09:19:03.413Z,52.83
2022-11-19T09:21:33.210Z,60.85
2022-11-19T09:24:01.481Z,63.35
2022-11-19T09:26:34.028Z,59.88
2022-11-19T09:29:29.882Z,56.95
2022-11-19T09:31:58.730Z,52.85
2022-11-19T09:34:27.221Z,56.58
2022-11-19T09:36:58.405Z,58.47
2022-11-19T09:39:26.810Z,62.40
2022-11-19T09:42:02.679Z,57.38
2022-11-19T09:44:46.955Z,57.03
2022-11-19T09:47:30.102Z,60.22
2022-11-19T09:50:07.920Z,53.15
2022-11-19T09:52:44.223Z,54.42
2022-11-19T09:55:19.262Z,57.03
2022-11-19T09:57:52.036Z,57.47
2022-11-19T10:00:33.229Z,62.80
2022-11-19T10:03:12.384Z,56.17
2022-11-19T10:06:03.410Z,52.22
2022-11-19T10:08:44.863Z,47.97
2022-11-19T10:11:29.269Z,46.40
2022-11-19T10:14:06.069Z,48.55
2022-11-19T10:16:45.045Z,43.53
2022-11-19T10:19:24.167Z,41.70
2022-11-19T10:22:00.115Z,51.53
2022-11-19T10:24:39.203Z,44.47
2022-11-19T10:27:30.952Z,36.33
2022-11-19T10:30:03.732Z,43.40
2022-11-19T10:32:36.857Z,36.45
2022-11-19T10:35:16.173Z,36.70
2022-11-19T10:38:04.401Z,37.00
2022-11-19T10:40:40.805Z,33.10
2022-11-19T10:43:22.204Z,33.75
2022-11-19T10:46:04.913Z,27.45
2022-11-19T10:48:40.777Z,24.20
2022-11-19T10:51:15.485Z,32.40
2022-11-19T10:53:50.016Z,26.80
2022-11-19T10:56:23.430Z,22.42
2022-11-19T10:58:55.751Z,19.85
2022-11-19T11:01:31.344Z,19.90
2022-11-19T11:04:08.016Z,23.55
2022-11-19T11:06:52.913Z,20.48
2022-11-19T11:09:35.107Z,17.60
2022-11-19T11:12:29.777Z,19.10
2022-11-19T11:15:16.043Z,19.75
2022-11-19T11:17:46.823Z,20.15
2022-11-19T11:20:27.297Z,11.80
2022-11-19T11:23:15.145Z,13.30
2022-11-19T11:25:53.630Z,16.45
2022-11-19T11:28:25.421Z,13.18
2022-11-19T11:30:55.455Z,22.73
2022-11-19T11:33:43.911Z,19.60
2022-11-19T11:36:15.539Z,23.48
2022-11-19T11:38:45.913Z,19.27
2022-11-19T11:44:17.355Z,16.13
2022-11-19T11:46:47.954Z,17.83
2022-11-19T11:49:29.258Z,19.50
2022-11-19T11:52:15.598Z,15.43
2022-11-19T11:54:57.600Z,14.18
2022-11-19T11:57:28.100Z,15.68
2022-11-19T11:59:58.513Z,18.27
2022-11-19T12:02:34.694Z,58.25
2022-11-19T12:05:05.507Z,15.70
2022-11-19T12:08:03.610Z,11.05
2022-11-19T12:10:55.861Z,7.57
2022-11-19T12:14:15.197Z,7.68
2022-11-19T12:17:04.512Z,6.18
2022-11-19T12:19:49.307Z,6.18
2022-11-19T12:22:28.019Z,9.68
2022-11-19T12:25:24.898Z,6.05
2022-11-19T12:28:16.292Z,5.40
2022-11-19T12:30:59.682Z,8.02
2022-11-19T12:33:51.824Z,8.43
2022-11-19T12:36:26.933Z,8.77
2022-11-19T12:39:02.059Z,10.25
2022-11-19T12:41:50.738Z,10.15
2022-11-19T12:44:29.835Z,9.60
2022-11-19T12:47:06.005Z,13.77
2022-11-19T12:50:09.638Z,12.88
2022-11-19T12:53:01.114Z,14.32
2022-11-19T12:55:39.690Z,15.13
2022-11-19T12:58:19.906Z,12.90
2022-11-19T13:00:53.476Z,12.30
2022-11-19T13:03:26.926Z,15.25
2022-11-19T13:06:01.861Z,16.85
2022-11-19T13:08:35.337Z,14.48
2022-11-19T13:11:09.592Z,14.70
2022-11-19T13:13:45.698Z,16.40
2022-11-19T13:16:17.634Z,18.33
2022-11-19T13:18:52.652Z,19.33
2022-11-19T13:21:31.438Z,19.80
2022-11-19T13:24:08.913Z,18.58
2022-11-19T13:26:40.502Z,21.33
2022-11-19T13:29:24.158Z,19.02
2022-11-19T13:32:15.701Z,20.58
2022-11-19T13:34:51.523Z,19.42
2022-11-19T13:37:33.241Z,17.52
2022-11-19T13:40:06.377Z,16.35
2022-11-19T13:43:25.097Z,21.35
2022-11-19T13:46:07.008Z,21.92
2022-11-19T13:48:48.497Z,19.48
2022-11-19T13:51:56.670Z,18.48
2022-11-19T13:54:30.383Z,16.90
2022-11-19T13:56:59.519Z,15.15
2022-11-19T13:59:32.719Z,18.65
2022-11-19T14:02:13.380Z,19.73
2022-11-19T14:05:04.800Z,16.08
2022-11-19T14:07:57.888Z,16.20
2022-11-19T14:10:33.308Z,16.60
2022-11-19T14:13:34.520Z,19.67
2022-11-19T14:16:38.251Z,18.40
2022-11-19T14:19:43.847Z,21.10
2022-11-19T14:22:54.186Z,14.77
2022-11-19T14:26:01.301Z,15.60
2022-11-19T14:29:05.532Z,16.27
2022-11-19T14:31:34.102Z,18.83
2022-11-19T14:34:05.616Z,17.25
2022-11-19T14:36:46.227Z,14.48
2022-11-19T14:39:19.228Z,17.98
2022-11-19T14:42:09.239Z,19.30
2022-11-19T14:44:37.886Z,18.27
2022-11-19T14:47:40.909Z,34.80
2022-11-19T14:50:27.408Z,36.90
2022-11-19T14:52:57.639Z,40.00
2022-11-19T14:55:28.473Z,21.20
2022-11-19T14:58:30.652Z,21.83
2022-11-19T15:01:08.580Z,20.27
2022-11-19T15:03:37.976Z,26.80
2022-11-19T15:06:08.963Z,24.52
2022-11-19T15:08:51.485Z,21.77
2022-11-19T15:11:46.304Z,36.92
2022-11-19T15:15:02.633Z,24.83
2022-11-19T15:17:31.873Z,23.75
2022-11-19T15:20:21.029Z,26.08
2022-11-19T15:22:58.736Z,27.85
2022-11-19T15:25:34.063Z,27.27
2022-11-19T15:28:24.759Z,26.60
2022-11-19T15:31:25.194Z,31.63
2022-11-19T15:34:11.770Z,34.83
2022-11-19T15:36:45.585Z,33.00
2022-11-19T15:39:18.930Z,29.65
2022-11-19T15:42:07.811Z,38.28
2022-11-19T15:44:42.361Z,47.85
2022-11-19T15:47:19.605Z,40.90
2022-11-19T15:49:50.176Z,38.15
2022-11-19T15:52:26.994Z,40.95
2022-11-19T15:55:17.274Z,46.95
2022-11-19T15:57:52.408Z,38.67
2022-11-19T16:00:33.561Z,35.80
2022-11-19T16:03:14.514Z,33.30
2022-11-19T16:05:50.222Z,33.65
2022-11-19T16:08:19.266Z,29.00
2022-11-19T16:11:19.979Z,30.88
2022-11-19T16:14:21.215Z,28.75
2022-11-19T16:17:10.686Z,31.00
2022-11-19T16:19:44.870Z,40.10
2022-11-19T16:22:20.190Z,47.17
2022-11-19T16:25:10.637Z,39.47
2022-11-19T16:27:45.168Z,44.13
2022-11-19T16:30:50.910Z,54.33
2022-11-19T16:37:20.517Z,52.58
2022-11-19T16:39:53.148Z,41.88
2022-11-19T16:42:28.415Z,31.00
2022-11-19T16:45:00.973Z,39.10
2022-11-19T16:47:33.424Z,29.85
2022-11-19T16:50:27.030Z,36.78
2022-11-19T16:53:04.426Z,30.38
2022-11-19T16:56:05.515Z,28.55
2022-11-19T16:58:42.965Z,32.80
2022-11-19T17:01:14.786Z,37.75
2022-11-19T17:03:50.247Z,39.72
2022-11-19T17:06:26.112Z,34.47
2022-11-19T17:09:01.392Z,35.75
2022-11-19T17:12:11.156Z,46.63
2022-11-19T17:14:56.253Z,49.22
2022-11-19T17:17:41.876Z,41.42
2022-11-19T17:21:03.382Z,37.42
2022-11-19T17:24:04.247Z,32.63
2022-11-19T17:27:19.711Z,38.83
2022-11-19T17:30:26.369Z,41.03
2022-11-19T17:33:01.596Z,34.47
2022-11-19T17:35:38.146Z,39.50
2022-11-19T17:38:43.584Z,44.78
2022-11-19T17:41:56.958Z,30.42
2022-11-19T17:44:39.451Z,37.55
2022-11-19T17:47:22.831Z,34.30
2022-11-19T17:49:54.721Z,39.30
2022-11-19T17:52:29.202Z,44.85
2022-11-19T17:55:02.290Z,46.53
2022-11-19T17:58:00.647Z,41.05
2022-11-19T18:00:34.156Z,43.20
2022-11-19T18:03:03.382Z,45.00
2022-11-19T18:05:38.018Z,51.22
2022-11-19T18:08:07.026Z,45.70
2022-11-19T18:10:38.307Z,40.92
2022-11-19T18:13:07.253Z,40.95
2022-11-19T18:18:25.552Z,38.83
2022-11-19T18:20:58.976Z,38.67
2022-11-19T18:23:30.518Z,48.53
2022-11-19T18:25:59.817Z,46.72
2022-11-19T18:28:28.152Z,49.50
2022-11-19T18:30:59.654Z,43.88
2022-11-19T18:33:28.725Z,34.22
2022-11-19T18:35:57.314Z,36.65
2022-11-19T18:38:26.310Z,39.55
2022-11-19T18:40:58.123Z,42.60
2022-11-19T18:43:44.090Z,46.47
2022-11-19T18:46:14.176Z,59.00
2022-11-19T18:48:45.717Z,48.85
2022-11-19T18:51:14.415Z,43.47
2022-11-19T18:53:45.574Z,55.83
2022-11-19T18:56:16.120Z,51.03
2022-11-19T18:58:45.377Z,50.95
2022-11-19T19:01:16.655Z,47.10
2022-11-19T19:03:46.527Z,49.33
2022-11-19T19:06:25.094Z,45.75
2022-11-19T19:09:21.999Z,53.55
2022-11-19T19:12:21.964Z,50.75
2022-11-19T19:14:52.131Z,38.33
2022-11-19T19:17:22.969Z,43.40
2022-11-19T19:19:55.423Z,39.45
2022-11-19T19:22:35.090Z,40.47
2022-11-19T19:25:05.222Z,39.00
2022-11-19T19:27:37.201Z,37.88
2022-11-19T19:30:13.248Z,43.05
2022-11-19T19:32:45.984Z,35.63
2022-11-19T19:35:14.823Z,35.38
2022-11-19T19:37:46.864Z,43.50
2022-11-19T19:40:21.894Z,47.38
2022-11-19T19:42:50.768Z,38.90
2022-11-19T19:45:25.439Z,39.88
2022-11-19T19:47:55.490Z,42.88
2022-11-19T19:50:27.587Z,37.92
2022-11-19T19:52:58.193Z,37.10
2022-11-19T19:55:26.814Z,41.28
2022-11-19T19:58:07.649Z,33.15
2022-11-19T20:00:36.506Z,39.80
2022-11-19T20:03:07.311Z,40.75
2022-11-19T20:05:41.171Z,36.97
2022-11-19T20:08:09.710Z,36.33
2022-11-19T20:10:40.575Z,31.65
2022-11-19T20:13:29.611Z,48.10
2022-11-19T20:16:00.302Z,46.75
2022-11-19T20:18:32.004Z,43.50
2022-11-19T20:21:04.232Z,39.33
2022-11-19T20:23:32.810Z,41.30
2022-11-19T20:26:06.121Z,46.47
2022-11-19T20:28:35.507Z,51.55
2022-11-19T20:31:08.442Z,42.72
2022-11-19T20:33:39.114Z,45.05
2022-11-19T20:36:11.862Z,40.78
2022-11-19T20:38:42.802Z,38.95
2022-11-19T20:41:33.803Z,34.17
2022-11-19T20:44:21.179Z,45.90
2022-11-19T20:46:52.994Z,53.58
2022-11-19T20:49:27.701Z,56.08
2022-11-19T20:51:56.768Z,47.38
2022-11-19T20:54:45.195Z,59.03
2022-11-19T20:57:38.383Z,49.15
2022-11-19T21:00:15.544Z,52.42
2022-11-19T21:02:44.437Z,47.13
2022-11-19T21:05:14.501Z,48.17
2022-11-19T21:07:43.453Z,44.13
2022-11-19T21:10:22.937Z,45.05
2022-11-19T21:13:02.268Z,44.28
2022-11-19T21:15:51.619Z,44.53
2022-11-19T21:18:24.427Z,44.38
2022-11-19T21:21:12.948Z,30.65
2022-11-19T21:24:06.506Z,33.33
2022-11-19T21:26:36.506Z,38.80
2022-11-19T21:29:06.757Z,51.78
2022-11-19T21:31:42.522Z,38.92
2022-11-19T21:34:12.889Z,42.95
2022-11-19T21:36:46.859Z,38.10
2022-11-19T21:39:23.252Z,41.55
2022-11-19T21:41:54.994Z,37.08
2022-11-19T21:44:26.998Z,43.03
2022-11-19T21:46:55.790Z,39.28
2022-11-19T21:49:27.970Z,35.47
2022-11-19T21:51:57.969Z,39.85
2022-11-19T21:54:29.837Z,40.03
2022-11-19T21:57:11.280Z,38.13
2022-11-19T21:59:43.143Z,41.28
2022-11-19T22:02:12.738Z,43.28
2022-11-19T22:04:42.170Z,43.85
2022-11-19T22:07:15.645Z,39.47
2022-11-19T22:09:44.464Z,36.90
2022-11-19T22:12:13.291Z,43.50
2022-11-19T22:14:42.183Z,48.28
2022-11-19T22:17:18.763Z,44.55
2022-11-19T22:19:47.707Z,36.95
2022-11-19T22:22:22.851Z,33.78
2022-11-19T22:24:51.433Z,46.88
2022-11-19T22:27:19.895Z,41.53
2022-11-19T22:29:51.161Z,41.85
2022-11-19T22:32:31.537Z,52.97
2022-11-19T22:34:59.828Z,41.72
2022-11-19T22:37:42.645Z,44.33
2022-11-19T22:40:14.639Z,41.70
2022-11-19T22:42:42.902Z,49.80
2022-11-19T22:45:11.819Z,44.70
2022-11-19T22:47:44.514Z,47.38
2022-11-19T22:50:28.281Z,56.70
2022-11-19T22:53:03.754Z,53.00
2022-11-19T22:55:36.127Z,50.67
2022-11-19T22:58:15.377Z,51.40
2022-11-19T23:00:49.013Z,48.15
2022-11-19T23:03:29.302Z,54.20
2022-11-19T23:05:59.418Z,42.10
2022-11-19T23:08:33.166Z,44.08
2022-11-19T23:11:03.622Z,50.13
2022-11-19T23:13:39.138Z,39.72
2022-11-19T23:16:13.064Z,34.22
2022-11-19T23:18:42.829Z,32.13
2022-11-19T23:21:13.671Z,30.73
2022-11-19T23:23:44.202Z,33.70
2022-11-19T23:26:15.942Z,36.28
2022-11-19T23:28:45.755Z,50.88
2022-11-19T23:31:16.905Z,39.67
2022-11-19T23:33:46.692Z,37.88
2022-11-19T23:36:21.465Z,44.72
2022-11-19T23:38:56.019Z,33.78
2022-11-19T23:41:28.053Z,41.17
2022-11-19T23:43:57.352Z,42.70
2022-11-19T23:46:28.075Z,34.20
2022-11-19T23:48:58.086Z,37.05
2022-11-19T23:51:29.616Z,32.15
2022-11-19T23:53:59.912Z,38.35
2022-11-19T23:56:46.348Z,44.20
2022-11-19T23:59:14.770Z,39.85
